Rechercher aéroport 
image banner adimage banner ad
image banner ad

SSKZ - Carazinho Airport

Situé à Carazinho, Brazil

ICAO - SSKZ, IATA -

Données fournies par Airmate  

Information générale

Coordonnées: S28°19'17" W52°48'56"
Élévation : 1853 feet MSL.
Variation magnétique : -16° East
Voir autres Aéroports à Rio Grande do Sul

Données opérationnelles

Accessible au public
Heure actuelle UTC:
Heure actuelle locale:
Météo à : SBPF - Lauro Kurtz Airport ( 48 km )
METAR: SBPF 301300Z 03010KT 9999 SCT040 24/20 Q1015
Voir NOTAMs / SUP AIP / TFR affectant cet aéroport [VIEW]
Fréquences de communication: [VIEW]

Pistes:

Identifiant RWYQFULongueur (ft)Largeur (ft)SurfaceLDA (ft)
11511898ASP
29511898ASP

Coordonnées de l'aéroport

Adresse: Carazinho Brazil

Vue satellite de SSKZ